Search for airport 
image banner adimage banner ad
image banner ad

DAUG - Ghardaia / Noumerat-Moufdi Zakaria

Located in Ghardaia, Algeria

ICAO - DAUG, IATA - GHA

Data provided by Airmate  

General information

Coordinates: N32°22'54" E3°47'58"
Elevation is 1512 feet MSL.
 
Rated:
View ratings: [VIEW]


View others Airports in Ghardaïa Province

Operational data

Open for public use
Current time UTC:
Current local time:
Weather
METAR: DAUG 070100Z 09004KT CAVOK 30/13 Q1016
TAF: TAF DAUG 062300Z 0700/0724 10008KT CAVOK
View NOTAMs / SUP AIP / TFR affecting this airport [VIEW]
Communications frequencies: [VIEW]

Runways:

RWY identifierQFULength (ft)Width (ft)SurfaceLDA (ft)
18183°7874148
367874148
12122°10171197ASP
30302°10171197

Airport contact information

Address: Ghardaia Algeria

Satellite view of DAUG